Time;durP1;ratioP1;P1;durP2;ratioP2;P2;SDS_P1;SDS_P2;PMS_P1;PMS_P2;Temp;Humidity;BMP_temperature;BMP_pressure;BME280_temperature;BME280_humidity;BME280_pressure;Samples;Min_cycle;Max_cycle;Signal;HPM_P1;HPM_P2
2022/08/23 00:00:19;;;;;;;6.43;2.73;;;;;;;18.10;96.42;100476.70;3496473;83;98651;-93
2022/08/23 00:05:20;;;;;;;7.37;2.80;;;;;;;18.23;96.57;100502.73;3515337;83;33170;-94
2022/08/23 00:10:21;;;;;;;5.50;2.45;;;;;;;18.22;96.50;100496.98;3491129;83;98606;-94
2022/08/23 00:15:23;;;;;;;6.63;2.90;;;;;;;18.23;96.60;100507.50;3496840;84;34401;-93
2022/08/23 00:20:25;;;;;;;8.60;2.77;;;;;;;18.23;96.66;100505.52;3501523;82;98666;-94
2022/08/23 00:25:26;;;;;;;5.87;2.70;;;;;;;18.23;96.67;100497.16;3507422;83;27993;-92
2022/08/23 00:30:28;;;;;;;5.03;2.70;;;;;;;18.23;96.63;100492.98;3509428;83;98608;-92
2022/08/23 00:35:29;;;;;;;6.93;3.13;;;;;;;18.23;96.57;100483.83;3483754;82;33208;-93
2022/08/23 00:40:30;;;;;;;7.97;2.57;;;;;;;18.23;96.53;100474.08;3496033;83;98625;-93
2022/08/23 00:52:06;;;;;;;7.22;3.10;;;;;;;18.20;96.78;100475.71;3473726;83;26526;-92
2022/08/23 00:57:11;;;;;;;5.35;2.70;;;;;;;18.20;96.72;100469.38;3488171;82;98686;-95
2022/08/23 01:02:13;;;;;;;13.20;3.33;;;;;;;18.17;96.83;100463.25;3514504;83;26842;-93
2022/08/23 01:07:40;;;;;;;7.07;3.13;;;;;;;18.15;97.08;100458.09;3504519;82;99145;-95
2022/08/23 01:12:45;;;;;;;;;;;;;;;18.14;97.24;100469.69;3499892;83;26012;-96
2022/08/23 01:18:05;;;;;;;8.00;4.15;;;;;;;18.12;97.82;100467.92;3512275;82;84768;-94
2022/08/23 01:23:41;;;;;;;11.70;4.53;;;;;;;18.10;97.47;100470.36;3516738;82;26191;-94
2022/08/23 01:28:42;;;;;;;8.08;3.35;;;;;;;18.09;97.61;100473.73;3487730;82;98977;-93
2022/08/23 01:33:49;;;;;;;11.47;4.80;;;;;;;18.09;97.73;100477.91;3515868;82;25844;-93
2022/08/23 01:38:50;;;;;;;7.07;4.00;;;;;;;18.10;97.78;100489.23;3492221;82;99084;-93
2022/08/23 01:43:51;;;;;;;14.40;4.60;;;;;;;18.11;97.84;100483.06;3522354;83;25853;-93
2022/08/23 01:48:54;;;;;;;8.30;4.20;;;;;;;18.11;97.89;100472.72;3506343;82;99096;-93
2022/08/23 01:53:55;;;;;;;10.95;3.90;;;;;;;18.10;98.08;100482.89;3499627;83;26559;-92
2022/08/23 01:58:56;;;;;;;7.37;3.60;;;;;;;18.14;98.08;100484.39;3485438;80;98929;-93
2022/08/23 02:03:57;;;;;;;7.57;3.50;;;;;;;18.15;98.19;100486.58;3527624;82;25779;-94
2022/08/23 02:09:01;;;;;;;9.73;4.20;;;;;;;18.14;98.22;100494.14;3476168;82;98522;-93
2022/08/23 02:14:07;;;;;;;6.95;4.25;;;;;;;18.16;98.42;100500.06;3484176;83;25833;-92
2022/08/23 02:24:45;;;;;;;13.32;4.90;;;;;;;18.17;99.15;100482.75;3436897;83;67521;-88
2022/08/23 02:29:46;;;;;;;10.03;4.08;;;;;;;18.16;98.62;100490.30;3470295;83;98844;-86
2022/08/23 02:34:48;;;;;;;10.25;4.33;;;;;;;18.17;98.64;100479.97;3482410;83;26401;-85
2022/08/23 02:39:50;;;;;;;10.00;3.98;;;;;;;18.14;98.79;100474.64;3476067;83;98813;-85
2022/08/23 02:44:51;;;;;;;9.20;4.95;;;;;;;18.13;98.81;100470.28;3483258;83;42153;-84
2022/08/23 02:49:52;;;;;;;9.57;4.27;;;;;;;17.96;99.03;100462.25;3476486;82;98545;-85
2022/08/23 02:54:53;;;;;;;10.40;4.60;;;;;;;17.96;99.03;100462.25;3480613;83;25909;-84
2022/08/23 02:59:54;;;;;;;10.30;5.10;;;;;;;18.07;99.38;100487.31;3479323;83;98852;-84
2022/08/23 03:04:55;;;;;;;10.03;4.77;;;;;;;18.06;99.67;100484.95;3488441;82;33638;-84
2022/08/23 03:09:57;;;;;;;13.37;5.17;;;;;;;18.04;99.93;100491.56;3500083;82;98623;-84
2022/08/23 03:14:58;;;;;;;14.37;5.13;;;;;;;18.03;100.00;100495.56;3505780;83;26446;-84
2022/08/23 03:19:59;;;;;;;8.90;5.00;;;;;;;18.01;100.00;100501.55;3496421;83;99118;-84
2022/08/23 03:25:00;;;;;;;8.53;4.85;;;;;;;18.00;100.00;100512.52;3507055;82;28456;-84
2022/08/23 03:30:01;;;;;;;8.05;4.47;;;;;;;18.02;100.00;100514.85;3503922;82;98667;-84
2022/08/23 03:35:04;;;;;;;11.90;5.27;;;;;;;18.01;100.00;100507.13;3504042;83;33296;-84
2022/08/23 03:40:06;;;;;;;11.87;5.40;;;;;;;18.02;100.00;100508.69;3491097;82;98982;-82
2022/08/23 03:45:08;;;;;;;11.17;5.77;;;;;;;18.00;100.00;100507.54;3508240;83;46934;-83
2022/08/23 03:50:10;;;;;;;13.58;6.60;;;;;;;17.98;100.00;100506.56;3492508;83;98695;-84
2022/08/23 03:55:13;;;;;;;8.13;5.35;;;;;;;17.97;100.00;100506.39;3500500;83;26068;-84
2022/08/23 04:00:15;;;;;;;12.70;5.37;;;;;;;17.99;100.00;100509.52;3502774;82;98824;-84
2022/08/23 04:05:16;;;;;;;9.65;5.15;;;;;;;18.00;100.00;100508.93;3515997;83;26529;-83
2022/08/23 04:10:18;;;;;;;9.98;5.12;;;;;;;18.01;100.00;100507.72;3515352;82;98782;-84
2022/08/23 04:15:19;;;;;;;10.37;5.00;;;;;;;18.00;100.00;100512.52;3495067;83;25832;-84
2022/08/23 04:20:20;;;;;;;12.50;5.77;;;;;;;18.01;100.00;100513.28;3487477;83;98975;-83
2022/08/23 04:25:21;;;;;;;12.27;5.87;;;;;;;18.03;100.00;100522.02;3510708;83;28452;-84
2022/08/23 04:30:22;;;;;;;10.53;5.23;;;;;;;18.02;100.00;100513.45;3511974;82;99028;-83
2022/08/23 04:35:24;;;;;;;8.60;5.30;;;;;;;18.00;100.00;100522.27;3493046;83;33606;-84
2022/08/23 04:45:45;;;;;;;12.55;6.75;;;;;;;18.06;100.00;100513.59;3520169;83;83348;-82
2022/08/23 04:50:47;;;;;;;8.73;5.00;;;;;;;18.07;100.00;100508.20;3491699;83;98559;-82
2022/08/23 04:55:49;;;;;;;8.67;4.20;;;;;;;18.09;100.00;100522.48;3514515;82;26075;-82
2022/08/23 05:00:54;;;;;;;7.10;4.23;;;;;;;18.10;100.00;100511.52;3480838;83;98784;-83
2022/08/23 05:05:56;;;;;;;8.98;5.42;;;;;;;18.15;100.00;100503.29;3519290;82;26555;-83
2022/08/23 05:11:03;;;;;;;9.00;5.53;;;;;;;18.17;100.00;100507.23;3508507;82;25833;-83
2022/08/23 05:16:05;;;;;;;9.70;5.42;;;;;;;18.22;100.00;100508.13;3498548;82;98675;-83
2022/08/23 05:21:07;;;;;;;10.20;5.12;;;;;;;18.28;100.00;100506.42;3515193;83;26003;-83
2022/08/23 05:26:10;;;;;;;11.90;5.80;;;;;;;18.38;100.00;100519.40;3484145;82;99126;-83
2022/08/23 05:31:21;;;;;;;9.75;6.58;;;;;;;18.46;100.00;100523.61;3507928;83;26515;-83
2022/08/23 05:36:23;;;;;;;9.68;5.58;;;;;;;18.55;100.00;100523.84;3495084;82;98719;-83
2022/08/23 05:41:24;;;;;;;10.87;5.63;;;;;;;18.62;100.00;100529.27;3514987;83;26476;-84
2022/08/23 05:46:25;;;;;;;9.27;5.47;;;;;;;18.71;100.00;100511.96;3495739;82;98780;-83
2022/08/23 05:51:33;;;;;;;10.37;4.90;;;;;;;18.79;100.00;100496.64;3509231;83;33316;-83
2022/08/23 05:56:38;;;;;;;10.32;5.30;;;;;;;18.86;100.00;100488.14;3483771;82;99366;-83
2022/08/23 06:01:40;;;;;;;9.80;5.17;;;;;;;18.89;100.00;100495.04;3485906;83;25855;-82
2022/08/23 06:06:42;;;;;;;9.18;5.05;;;;;;;18.95;100.00;100481.35;3485425;82;99120;-82
2022/08/23 06:11:46;;;;;;;11.47;6.50;;;;;;;19.00;100.00;100487.22;3485899;83;26400;-83
2022/08/23 06:16:49;;;;;;;8.88;5.22;;;;;;;19.05;100.00;100499.27;3506409;82;99245;-83
2022/08/23 06:21:51;;;;;;;10.37;5.83;;;;;;;19.11;100.00;100514.87;3513067;83;25842;-82
2022/08/23 06:26:52;;;;;;;11.03;5.17;;;;;;;19.17;100.00;100511.14;3440233;82;173003;-84
2022/08/23 06:31:54;;;;;;;9.20;5.20;;;;;;;19.27;100.00;100524.70;3449272;84;36181;-83
2022/08/23 06:37:11;;;;;;;10.90;5.47;;;;;;;19.41;100.00;100509.80;3473220;83;98940;-83
2022/08/23 06:42:16;;;;;;;10.48;5.60;;;;;;;19.53;100.00;100518.12;3458390;83;30095;-84
2022/08/23 06:47:17;;;;;;;13.05;6.58;;;;;;;19.61;100.00;100523.72;3460610;82;99206;-84
2022/08/23 06:52:18;;;;;;;8.80;5.60;;;;;;;19.74;100.00;100527.38;3470003;84;52069;-84
2022/08/23 06:57:19;;;;;;;12.27;6.23;;;;;;;19.85;100.00;100541.27;3481852;82;98994;-84
2022/08/23 07:02:20;;;;;;;13.77;6.77;;;;;;;19.85;100.00;100532.89;3523715;83;26451;-84
2022/08/23 07:07:21;;;;;;;9.90;6.60;;;;;;;19.94;100.00;100535.06;3517739;82;99501;-84
2022/08/23 07:12:22;;;;;;;9.47;6.60;;;;;;;20.04;100.00;100533.38;3500849;83;27196;-84
2022/08/23 07:17:24;;;;;;;12.77;7.23;;;;;;;20.14;100.00;100536.55;3397470;82;98715;-84
2022/08/23 07:22:25;;;;;;;11.27;7.37;;;;;;;20.19;100.00;100540.21;3411601;83;29718;-84
2022/08/23 07:27:26;;;;;;;9.73;6.70;;;;;;;20.23;100.00;100550.70;3463001;83;99068;-83
2022/08/23 07:32:27;;;;;;;11.20;6.93;;;;;;;20.32;100.00;100553.62;3498502;82;33260;-84
2022/08/23 07:37:29;;;;;;;13.37;7.87;;;;;;;20.38;100.00;100563.05;3491984;82;99059;-84
2022/08/23 07:42:30;;;;;;;13.17;7.73;;;;;;;20.42;100.00;100555.96;3482871;83;26549;-85
2022/08/23 07:47:32;;;;;;;13.07;8.80;;;;;;;20.49;100.00;100564.17;3490732;83;99082;-84
2022/08/23 07:52:34;;;;;;;12.30;8.87;;;;;;;20.55;100.00;100574.36;3439688;83;33890;-84
2022/08/23 07:57:35;;;;;;;16.00;9.43;;;;;;;20.58;100.00;100568.50;3456834;83;98920;-84
2022/08/23 08:02:36;;;;;;;17.33;8.90;;;;;;;20.67;100.00;100576.45;3467723;82;25928;-84
2022/08/23 08:07:37;;;;;;;12.40;9.18;;;;;;;20.68;100.00;100581.41;3471965;82;99247;-85
2022/08/23 08:12:39;;;;;;;13.17;9.77;;;;;;;20.71;100.00;100586.91;3455079;83;29409;-85
2022/08/23 08:17:40;;;;;;;14.77;9.17;;;;;;;20.79;100.00;100593.89;3481566;83;99217;-85
2022/08/23 08:22:41;;;;;;;15.83;10.17;;;;;;;20.82;100.00;100598.59;3498495;83;28500;-85
2022/08/23 08:27:42;;;;;;;12.75;10.08;;;;;;;20.83;100.00;100604.38;3441419;83;99529;-85
2022/08/23 08:32:43;;;;;;;14.67;10.43;;;;;;;20.89;100.00;100608.23;3477600;83;28621;-86
2022/08/23 08:37:45;;;;;;;14.50;10.37;;;;;;;20.89;100.00;100608.23;3481360;83;99278;-85
2022/08/23 08:43:18;;;;;;;14.33;10.05;;;;;;;20.96;100.00;100617.81;3498509;82;25925;-86
2022/08/23 08:48:22;;;;;;;13.97;10.00;;;;;;;21.03;100.00;100619.64;3476908;83;99437;-86
2022/08/23 08:53:30;;;;;;;18.57;10.03;;;;;;;21.07;100.00;100615.50;3496029;82;118460;-86
2022/08/23 08:59:00;;;;;;;16.52;10.38;;;;;;;21.14;100.00;100619.48;3472808;83;99484;-85
2022/08/23 09:04:03;;;;;;;16.40;10.88;;;;;;;21.21;100.00;100617.11;3465587;83;31278;-85
2022/08/23 09:09:21;;;;;;;16.95;10.20;;;;;;;21.30;100.00;100613.05;3431533;84;99357;-87
2022/08/23 09:14:47;;;;;;;17.77;9.88;;;;;;;21.35;100.00;100625.87;3459780;83;26356;-87
2022/08/23 09:19:50;;;;;;;15.13;9.53;;;;;;;21.37;100.00;100626.19;3356890;84;98766;-87
2022/08/23 09:24:51;;;;;;;16.90;10.13;;;;;;;21.40;100.00;100635.12;3435794;84;83358;-88
2022/08/23 09:30:00;;;;;;;13.10;9.03;;;;;;;21.47;100.00;100634.90;3476478;82;99370;-88
2022/08/23 09:35:16;;;;;;;15.65;9.75;;;;;;;21.63;100.00;100629.20;3441622;83;28020;-88
2022/08/23 09:40:41;;;;;;;14.98;9.03;;;;;;;21.79;100.00;100634.73;3438576;85;98715;-88
2022/08/23 09:45:53;;;;;;;13.58;9.78;;;;;;;21.88;100.00;100632.66;3419498;84;25844;-87
2022/08/23 09:50:56;;;;;;;12.33;8.57;;;;;;;21.93;100.00;100632.10;3432494;84;98819;-87
2022/08/23 09:56:10;;;;;;;13.22;8.85;;;;;;;21.97;100.00;100630.75;3422668;84;99186;-87
2022/08/23 10:01:25;;;;;;;15.88;10.05;;;;;;;22.01;100.00;100632.83;3405781;84;26316;-87
2022/08/23 10:06:33;;;;;;;17.98;10.25;;;;;;;22.08;100.00;100632.59;3416279;84;99229;-90
2022/08/23 10:11:39;;;;;;;16.45;10.08;;;;;;;22.08;100.00;100631.82;3376541;85;28783;-88
2022/08/23 10:17:03;;;;;;;17.57;9.93;;;;;;;22.15;100.00;100640.79;3362529;86;99377;-89
2022/08/23 10:22:21;;;;;;;14.23;9.10;;;;;;;22.07;100.00;100640.84;3412293;85;28054;-90
2022/08/23 10:34:14;;;;;;;15.98;10.82;;;;;;;22.21;100.00;100653.00;3375527;86;26088;-89
2022/08/23 10:39:30;;;;;;;15.93;9.88;;;;;;;22.19;100.00;100649.84;3369554;85;99321;-86
2022/08/23 10:45:02;;;;;;;15.48;10.65;;;;;;;22.24;100.00;100656.93;3366964;87;26442;-89
2022/08/23 10:50:09;;;;;;;16.00;10.68;;;;;;;22.19;100.00;100649.84;3420104;84;99178;-89
2022/08/23 10:55:16;;;;;;;17.62;10.43;;;;;;;22.15;100.00;100652.00;3427338;84;30643;-88
2022/08/23 11:00:22;;;;;;;18.57;12.05;;;;;;;22.17;100.00;100645.31;3446963;84;98870;-89
2022/08/23 11:05:28;;;;;;;15.25;10.00;;;;;;;22.26;100.00;100635.61;3428285;84;25784;-90
2022/08/23 11:10:40;;;;;;;16.67;10.88;;;;;;;22.31;100.00;100636.45;3464952;83;98865;-89
2022/08/23 11:15:49;;;;;;;16.95;11.80;;;;;;;22.36;100.00;100642.09;3470507;84;26206;-89
2022/08/23 11:20:55;;;;;;;20.67;11.40;;;;;;;22.45;100.00;100650.01;3438496;83;98900;-90
2022/08/23 11:25:56;;;;;;;17.75;11.25;;;;;;;22.44;100.00;100651.25;3467752;83;99213;-88
2022/08/23 11:31:12;;;;;;;22.27;12.17;;;;;;;22.60;100.00;100646.89;3469136;83;55571;-91
2022/08/23 11:36:20;;;;;;;17.02;12.18;;;;;;;22.71;100.00;100627.66;3467156;82;100936;-90
2022/08/23 11:41:32;;;;;;;18.73;11.93;;;;;;;22.81;100.00;100631.33;3485513;83;25817;-91
2022/08/23 11:46:36;;;;;;;18.85;11.73;;;;;;;22.93;99.58;100629.08;3478627;83;99389;-89
2022/08/23 11:51:57;;;;;;;18.85;12.13;;;;;;;23.03;99.62;100630.11;3478031;83;26028;-89
2022/08/23 11:57:20;;;;;;;18.17;12.37;;;;;;;23.05;99.19;100627.63;3455810;83;99387;-90
2022/08/23 12:03:06;;;;;;;18.20;12.23;;;;;;;23.10;99.06;100629.84;3462730;83;25899;-89
2022/08/23 12:08:15;;;;;;;19.55;13.35;;;;;;;23.21;98.66;100627.45;3459970;83;98784;-91
2022/08/23 12:13:23;;;;;;;16.70;12.15;;;;;;;23.23;98.37;100627.80;3476957;83;32742;-89
2022/08/23 12:18:25;;;;;;;17.57;12.18;;;;;;;23.31;97.95;100624.08;3468581;82;98881;-90
2022/08/23 12:23:26;;;;;;;18.62;12.73;;;;;;;23.45;98.18;100629.96;3469358;82;25861;-88
2022/08/23 12:28:38;;;;;;;20.97;12.83;;;;;;;23.63;98.14;100626.45;3446751;82;99169;-91
2022/08/23 12:34:07;;;;;;;20.48;12.07;;;;;;;23.80;98.25;100623.55;3486891;82;25843;-91
2022/08/23 12:39:34;;;;;;;20.65;12.43;;;;;;;24.05;98.27;100619.16;3488767;82;99125;-91
2022/08/23 12:44:36;;;;;;;17.48;11.80;;;;;;;24.28;96.80;100625.02;3481907;82;26138;-91
2022/08/23 12:49:37;;;;;;;20.75;13.08;;;;;;;24.42;95.85;100624.40;3451312;82;98921;-93
2022/08/23 12:54:43;;;;;;;18.95;13.15;;;;;;;24.67;95.88;100616.33;3473983;82;26438;-93
2022/08/23 12:59:59;;;;;;;;;;;;;;;24.87;94.79;100621.67;3482321;82;98689;-93
2022/08/23 13:05:15;;;;;;;23.35;13.98;;;;;;;25.00;93.37;100618.67;3496170;82;25859;-91
2022/08/23 13:10:16;;;;;;;;;;;;;;;25.11;93.46;100631.67;3476792;82;98647;-93
2022/08/23 13:15:51;;;;;;;21.60;13.40;;;;;;;25.16;91.01;100632.42;3507990;82;25882;-93
2022/08/23 13:21:24;;;;;;;24.63;13.17;;;;;;;25.27;92.50;100635.56;3474392;82;98565;-92
2022/08/23 13:26:42;;;;;;;19.05;12.37;;;;;;;25.40;91.76;100639.00;3484067;82;103587;-92
2022/08/23 13:32:02;;;;;;;19.20;12.45;;;;;;;25.48;91.95;100643.05;3492393;82;26031;-94
2022/08/23 13:37:27;;;;;;;18.40;12.30;;;;;;;25.58;91.07;100644.59;3502923;82;98784;-93
2022/08/23 13:42:49;;;;;;;18.60;11.63;;;;;;;25.65;90.33;100637.99;3507886;82;25958;-91
2022/08/23 13:48:04;;;;;;;18.32;11.70;;;;;;;25.81;90.22;100639.03;3492011;84;99047;-93
2022/08/23 13:53:06;;;;;;;18.77;13.10;;;;;;;25.98;89.48;100629.58;3492267;84;172530;-92
2022/08/23 13:58:30;;;;;;;23.50;13.08;;;;;;;26.07;88.86;100630.95;3485930;82;99281;-92
2022/08/23 14:03:31;;;;;;;21.00;12.68;;;;;;;26.07;87.42;100638.00;3510773;82;25950;-92
2022/08/23 14:08:32;;;;;;;20.52;12.10;;;;;;;25.99;88.00;100635.40;3474094;82;99222;-93
2022/08/23 14:13:35;;;;;;;18.00;12.43;;;;;;;26.06;87.50;100636.45;3481880;82;26097;-92
2022/08/23 14:18:36;;;;;;;20.32;12.30;;;;;;;26.04;87.01;100631.92;3484768;83;98827;-92
2022/08/23 14:23:37;;;;;;;20.17;12.63;;;;;;;26.00;87.04;100628.49;3477440;83;26008;-93
2022/08/23 14:28:38;;;;;;;22.20;13.22;;;;;;;26.06;86.98;100618.91;3498427;83;99038;-92
2022/08/23 14:33:39;;;;;;;20.62;12.78;;;;;;;26.07;86.73;100618.26;3514081;83;26088;-92
2022/08/23 14:38:40;;;;;;;19.02;12.70;;;;;;;26.18;86.23;100619.92;3496747;82;99187;-91
2022/08/23 14:43:41;;;;;;;20.65;13.08;;;;;;;26.17;85.98;100621.19;3524122;83;26040;-92
2022/08/23 14:48:42;;;;;;;19.57;12.07;;;;;;;26.17;85.69;100607.88;3517455;83;99026;-91
2022/08/23 14:53:43;;;;;;;21.25;12.40;;;;;;;26.22;85.35;100597.31;3517080;83;26479;-90
2022/08/23 14:58:45;;;;;;;18.35;11.70;;;;;;;26.18;84.76;100594.53;3517268;82;98850;-90
2022/08/23 15:03:46;;;;;;;22.60;12.68;;;;;;;26.13;85.04;100594.56;3523526;83;25814;-91
2022/08/23 15:08:48;;;;;;;23.40;11.97;;;;;;;26.18;85.12;100597.35;3523164;82;98887;-91
2022/08/23 15:13:49;;;;;;;19.98;11.18;;;;;;;26.24;84.96;100599.05;3482140;82;26006;-90
2022/08/23 15:18:51;;;;;;;20.88;11.50;;;;;;;26.26;84.20;100597.16;3484330;82;98784;-91
2022/08/23 15:23:52;;;;;;;22.13;11.53;;;;;;;26.24;84.01;100586.97;3470075;83;25963;-90
2022/08/23 15:28:54;;;;;;;17.02;10.93;;;;;;;26.23;84.04;100594.67;3482347;83;98970;-86
2022/08/23 15:33:55;;;;;;;18.45;10.63;;;;;;;26.24;83.78;100594.02;3487607;82;25880;-91
2022/08/23 15:38:56;;;;;;;18.62;10.60;;;;;;;26.25;83.89;100589.93;3442412;82;98707;-90
2022/08/23 15:43:57;;;;;;;22.32;10.50;;;;;;;26.30;83.77;100589.27;3416701;85;45303;-90
2022/08/23 15:49:03;;;;;;;22.93;11.48;;;;;;;26.31;83.34;100593.69;3413646;85;98848;-90
2022/08/23 15:54:05;;;;;;;17.77;10.82;;;;;;;26.22;82.97;100601.55;3417881;84;26141;-90
2022/08/23 15:59:10;;;;;;;16.32;11.20;;;;;;;26.18;82.95;100608.64;3413899;85;98819;-90
2022/08/23 16:04:11;;;;;;;19.65;10.25;;;;;;;26.12;82.78;100615.58;3420424;85;26390;-90
2022/08/23 16:09:20;;;;;;;19.82;12.10;;;;;;;26.04;82.79;100624.23;3415262;85;99179;-91
2022/08/23 16:14:21;;;;;;;16.07;10.85;;;;;;;26.01;82.84;100634.28;3425043;84;26161;-91
2022/08/23 16:19:22;;;;;;;18.80;11.38;;;;;;;25.95;83.08;100628.52;3488349;83;99022;-91
2022/08/23 16:24:26;;;;;;;16.85;10.18;;;;;;;25.90;83.11;100633.37;3451206;83;26496;-90
2022/08/23 16:29:32;;;;;;;22.32;11.70;;;;;;;25.84;83.54;100647.17;3505169;83;98638;-91
2022/08/23 16:34:30;;;;;;;19.85;10.82;;;;;;;25.82;83.55;100651.88;3510650;83;25924;-91
2022/08/23 16:39:33;;;;;;;23.25;11.90;;;;;;;25.77;83.81;100657.39;3518715;83;98750;-91
2022/08/23 16:44:35;;;;;;;17.65;10.72;;;;;;;25.76;83.96;100655.80;3464283;83;2366912;-91
2022/08/23 16:49:36;;;;;;;16.90;9.60;;;;;;;25.72;83.85;100652.39;3503479;82;99073;-91
2022/08/23 16:54:37;;;;;;;21.33;11.73;;;;;;;25.65;83.93;100649.27;3505854;83;26262;-91
2022/08/23 16:59:38;;;;;;;15.95;10.65;;;;;;;25.53;83.88;100647.43;3511688;82;98702;-92
2022/08/23 17:04:39;;;;;;;17.87;10.65;;;;;;;25.45;83.97;100648.23;3498873;83;26654;-91
2022/08/23 17:09:41;;;;;;;17.73;9.23;;;;;;;25.26;84.15;100661.57;3511431;82;98658;-91
2022/08/23 17:14:44;;;;;;;19.02;10.03;;;;;;;25.07;84.45;100659.97;3485956;82;28475;-91
2022/08/23 17:19:45;;;;;;;13.08;9.43;;;;;;;24.96;84.38;100653.27;3481561;83;99023;-91
2022/08/23 17:24:46;;;;;;;16.93;10.53;;;;;;;24.72;84.90;100662.16;3490293;83;25807;-92
2022/08/23 17:29:47;;;;;;;19.07;10.58;;;;;;;24.56;85.14;100664.61;3482808;83;98672;-92
2022/08/23 17:34:48;;;;;;;14.03;9.38;;;;;;;24.42;85.55;100672.88;3490552;82;25836;-92
2022/08/23 17:39:50;;;;;;;19.62;9.70;;;;;;;24.29;85.65;100670.78;3480741;82;98557;-92
2022/08/23 17:44:51;;;;;;;19.23;11.00;;;;;;;24.17;85.73;100675.30;3487432;83;28783;-93
2022/08/23 17:49:53;;;;;;;16.50;9.85;;;;;;;24.05;86.52;100678.22;3484099;83;98664;-92
2022/08/23 17:54:55;;;;;;;15.20;10.38;;;;;;;23.92;86.88;100685.34;3487818;82;34585;-92
2022/08/23 17:59:57;;;;;;;18.27;10.13;;;;;;;23.83;86.83;100686.69;3465162;83;98733;-92
2022/08/23 18:04:58;;;;;;;13.70;8.87;;;;;;;23.71;87.15;100695.20;3467573;83;26417;-92
2022/08/23 18:09:59;;;;;;;16.48;8.95;;;;;;;23.60;87.44;100700.45;3481236;82;98426;-92
2022/08/23 18:15:03;;;;;;;13.83;9.13;;;;;;;23.42;87.68;100694.08;3485991;83;26520;-92
2022/08/23 18:20:09;;;;;;;14.83;9.70;;;;;;;23.33;87.87;100703.06;3482885;83;98489;-92
2022/08/23 18:25:12;;;;;;;12.98;8.50;;;;;;;23.21;88.10;100708.89;3483191;83;26506;-93
2022/08/23 18:30:14;;;;;;;13.68;8.98;;;;;;;23.09;88.49;100708.30;3481194;82;98590;-92
2022/08/23 18:35:15;;;;;;;17.48;10.48;;;;;;;22.95;88.77;100711.59;3484761;82;26371;-93
2022/08/23 18:40:16;;;;;;;14.60;9.73;;;;;;;22.86;89.07;100715.74;3479190;83;99002;-93
2022/08/23 18:45:18;;;;;;;13.30;9.57;;;;;;;22.75;89.30;100715.33;3486028;82;25955;-93
2022/08/23 18:50:19;;;;;;;18.13;12.67;;;;;;;22.66;89.50;100716.62;3479649;82;147633;-93
2022/08/23 18:55:20;;;;;;;19.70;14.63;;;;;;;22.58;89.96;100712.50;3499168;82;25862;-93
2022/08/23 19:00:22;;;;;;;18.00;12.33;;;;;;;22.48;91.15;100724.86;3480537;83;98772;-93
2022/08/23 19:05:23;;;;;;;16.73;10.43;;;;;;;22.42;90.99;100725.83;3487946;82;26481;-92
2022/08/23 19:10:24;;;;;;;17.70;10.05;;;;;;;22.36;91.32;100729.03;3485618;83;98901;-93
2022/08/23 19:15:28;;;;;;;17.33;9.73;;;;;;;22.32;91.57;100736.17;3515438;83;26556;-93
2022/08/23 19:20:29;;;;;;;15.83;11.40;;;;;;;22.27;92.03;100731.11;3517462;82;98994;-91
2022/08/23 19:25:32;;;;;;;18.07;11.78;;;;;;;22.21;92.11;100734.92;3524966;83;25888;-92
2022/08/23 19:30:34;;;;;;;18.65;13.08;;;;;;;22.13;92.05;100730.78;3505514;83;98893;-93
2022/08/23 19:35:35;;;;;;;17.25;11.08;;;;;;;22.06;92.16;100749.23;3520992;82;26420;-92
2022/08/23 19:40:36;;;;;;;21.37;10.57;;;;;;;21.99;92.33;100760.64;3522922;82;98670;-93
2022/08/23 19:45:38;;;;;;;15.00;8.23;;;;;;;21.88;92.59;100762.37;3523360;82;26106;-92
2022/08/23 19:50:40;;;;;;;12.80;8.10;;;;;;;21.81;92.84;100772.40;3506270;83;98686;-92
2022/08/23 19:55:43;;;;;;;10.28;7.03;;;;;;;21.74;93.08;100780.22;3530255;82;26981;-92
2022/08/23 20:00:45;;;;;;;12.13;6.58;;;;;;;21.68;93.51;100784.17;3511269;83;98799;-92
2022/08/23 20:05:46;;;;;;;11.23;7.00;;;;;;;21.64;93.70;100787.64;3524702;83;65161;-92
2022/08/23 20:10:47;;;;;;;11.20;7.80;;;;;;;21.58;93.85;100783.81;3516524;82;98326;-92
2022/08/23 20:15:48;;;;;;;10.63;6.27;;;;;;;21.48;94.21;100775.09;3485586;82;25911;-93
2022/08/23 20:20:52;;;;;;;12.30;6.70;;;;;;;21.46;94.42;100785.96;3402772;83;98264;-92
2022/08/23 20:25:52;;;;;;;12.98;8.20;;;;;;;21.41;94.75;100771.73;3439579;83;38498;-92
2022/08/23 20:30:54;;;;;;;12.60;7.25;;;;;;;21.35;95.08;100772.87;3448447;83;98405;-93
2022/08/23 20:35:55;;;;;;;13.80;7.93;;;;;;;21.28;95.34;100768.07;3459730;84;25829;-92
2022/08/23 20:40:56;;;;;;;15.37;8.20;;;;;;;21.22;95.56;100765.04;3486880;84;25781;-93
2022/08/23 20:45:58;;;;;;;17.10;8.73;;;;;;;21.18;96.01;100773.34;3487293;83;99157;-92
2022/08/23 20:51:03;;;;;;;16.00;8.50;;;;;;;21.11;96.31;100773.53;3476751;84;26430;-92
2022/08/23 20:56:04;;;;;;;16.35;9.43;;;;;;;21.05;96.50;100773.89;3491348;82;99028;-92
2022/08/23 21:01:06;;;;;;;13.43;8.28;;;;;;;21.01;96.48;100773.20;3496477;83;26130;-90
2022/08/23 21:06:12;;;;;;;16.37;8.28;;;;;;;20.97;96.75;100772.49;3492318;83;99124;-92
2022/08/23 21:11:13;;;;;;;14.38;8.65;;;;;;;20.95;96.85;100774.95;3496724;83;25893;-92
2022/08/23 21:16:16;;;;;;;17.33;8.30;;;;;;;20.92;96.83;100766.05;3486062;82;98992;-91
2022/08/23 21:21:17;;;;;;;14.78;7.97;;;;;;;20.87;97.13;100770.11;3419514;84;26532;-91
2022/08/23 21:26:18;;;;;;;13.20;7.97;;;;;;;20.84;97.37;100771.02;3453364;84;98936;-92
2022/08/23 21:31:24;;;;;;;13.20;8.13;;;;;;;20.83;97.44;100772.23;3469733;83;25972;-92
2022/08/23 21:36:25;;;;;;;14.80;9.33;;;;;;;20.80;97.62;100768.91;3487990;83;98911;-91
2022/08/23 21:41:39;;;;;;;15.50;9.27;;;;;;;20.80;97.65;100761.91;3498991;83;26391;-92
2022/08/23 21:46:41;;;;;;;14.25;8.98;;;;;;;20.79;97.86;100766.54;3491378;83;98776;-92
2022/08/23 21:51:44;;;;;;;13.90;8.00;;;;;;;20.79;98.25;100778.53;3471407;83;26151;-92
2022/08/23 21:56:45;;;;;;;15.83;9.13;;;;;;;20.78;98.40;100774.77;3458695;83;98742;-92
2022/08/23 22:01:47;;;;;;;13.68;8.50;;;;;;;20.78;98.33;100766.37;3454294;84;26467;-92
2022/08/23 22:06:48;;;;;;;14.73;8.63;;;;;;;20.77;98.42;100773.97;3471455;83;98765;-93
2022/08/23 22:11:51;;;;;;;15.83;9.37;;;;;;;20.76;98.56;100775.20;3486581;82;26168;-93
2022/08/23 22:16:52;;;;;;;14.85;8.58;;;;;;;20.76;98.61;100774.42;3490530;83;98794;-92
2022/08/23 22:21:53;;;;;;;16.82;9.78;;;;;;;20.74;99.10;100767.06;3483571;83;26393;-92
2022/08/23 22:26:54;;;;;;;16.00;9.00;;;;;;;20.71;99.42;100769.35;3419704;82;98731;-93
2022/08/23 22:31:56;;;;;;;14.90;8.17;;;;;;;20.69;99.69;100771.19;3450155;83;26566;-92
2022/08/23 22:36:57;;;;;;;15.07;8.37;;;;;;;20.68;99.84;100763.22;3465737;83;98695;-92
2022/08/23 22:41:58;;;;;;;15.20;8.50;;;;;;;20.66;99.77;100764.28;3475434;83;26566;-93
2022/08/23 22:46:59;;;;;;;12.93;8.27;;;;;;;20.66;100.00;100764.28;3483099;83;98922;-92
2022/08/23 22:52:01;;;;;;;13.10;8.87;;;;;;;20.60;100.00;100752.05;3489653;83;25857;-90
2022/08/23 22:57:02;;;;;;;11.50;7.97;;;;;;;20.64;100.00;100760.52;3487811;83;99200;-93
2022/08/23 23:02:04;;;;;;;15.90;8.63;;;;;;;20.62;100.00;100751.79;3482960;83;25954;-92
2022/08/23 23:07:05;;;;;;;14.83;8.40;;;;;;;20.61;100.00;100755.78;3467377;82;99309;-93
2022/08/23 23:12:06;;;;;;;15.47;9.17;;;;;;;20.61;100.00;100756.41;3489908;83;28515;-92
2022/08/23 23:17:07;;;;;;;14.53;9.43;;;;;;;20.57;100.00;100759.30;3477854;82;99138;-92
2022/08/23 23:22:08;;;;;;;14.13;8.73;;;;;;;20.54;100.00;100750.37;3494417;83;25980;-93
2022/08/23 23:27:09;;;;;;;15.10;8.40;;;;;;;20.50;100.00;100755.25;3485855;82;98902;-92
2022/08/23 23:32:10;;;;;;;14.37;9.13;;;;;;;20.47;100.00;100761.73;3494131;83;33392;-92